Time;durP1;ratioP1;P1;durP2;ratioP2;P2;SDS_P1;SDS_P2;PMS_P1;PMS_P2;Temp;Humidity;BMP_temperature;BMP_pressure;BME280_temperature;BME280_humidity;BME280_pressure;Samples;Min_cycle;Max_cycle;Signal;HPM_P1;HPM_P2
2022/04/04 00:00:06;;;;;;;11.77;6.93;;;0.50;99.90;;;;;;5075731;28;20029;-68
2022/04/04 00:02:32;;;;;;;10.70;7.07;;;0.60;99.90;;;;;;5075724;28;20385;-68
2022/04/04 00:04:58;;;;;;;13.32;7.20;;;0.50;99.90;;;;;;5058554;28;20016;-68
2022/04/04 00:07:23;;;;;;;9.30;6.63;;;0.50;99.90;;;;;;5075563;28;20066;-68
2022/04/04 00:09:49;;;;;;;11.52;7.40;;;0.60;99.90;;;;;;5075804;28;20039;-68
2022/04/04 00:12:16;;;;;;;12.25;7.95;;;0.60;99.90;;;;;;5057555;28;20389;-68
2022/04/04 00:14:41;;;;;;;11.07;7.25;;;0.50;99.90;;;;;;5075360;28;20451;-68
2022/04/04 00:17:07;;;;;;;13.38;7.72;;;0.60;99.90;;;;;;5075994;28;20024;-68
2022/04/04 00:19:33;;;;;;;12.48;7.93;;;0.60;99.90;;;;;;5075347;28;20101;-68
2022/04/04 00:21:58;;;;;;;12.45;7.45;;;0.50;99.90;;;;;;5075262;28;20027;-68
2022/04/04 00:24:24;;;;;;;13.88;8.95;;;0.50;99.90;;;;;;5075181;28;20021;-68
2022/04/04 00:26:50;;;;;;;12.68;8.18;;;0.40;99.90;;;;;;5074702;28;20028;-68
2022/04/04 00:29:16;;;;;;;12.60;8.02;;;0.40;99.90;;;;;;5075438;28;20059;-68
2022/04/04 00:31:41;;;;;;;14.18;8.35;;;0.40;99.90;;;;;;5075374;28;20040;-68
2022/04/04 00:34:09;;;;;;;11.68;7.38;;;0.30;99.90;;;;;;5075088;28;20032;-68
2022/04/04 00:36:34;;;;;;;15.25;8.00;;;0.30;99.90;;;;;;5075003;28;20035;-68
2022/04/04 00:39:00;;;;;;;12.25;7.70;;;0.30;99.90;;;;;;5074989;28;20028;-68
2022/04/04 00:41:25;;;;;;;11.45;6.82;;;0.30;99.90;;;;;;5074798;28;20050;-68
2022/04/04 00:43:52;;;;;;;11.32;7.07;;;0.30;99.90;;;;;;5074788;28;20073;-68
2022/04/04 00:46:18;;;;;;;10.82;7.05;;;0.30;99.90;;;;;;5074847;28;20028;-68
2022/04/04 00:48:44;;;;;;;11.65;6.90;;;0.30;99.90;;;;;;5075091;28;20028;-68
2022/04/04 00:51:10;;;;;;;14.15;8.00;;;0.40;99.90;;;;;;5074724;28;20027;-68
2022/04/04 00:53:36;;;;;;;11.45;7.05;;;0.40;99.90;;;;;;5074749;28;20025;-68
2022/04/04 00:56:02;;;;;;;11.40;7.40;;;0.40;99.90;;;;;;5074599;28;20495;-68
2022/04/04 00:58:31;;;;;;;12.60;7.85;;;0.40;99.90;;;;;;5074433;28;20035;-69
2022/04/04 01:00:58;;;;;;;13.85;7.38;;;0.40;99.90;;;;;;5074490;28;20111;-68
2022/04/04 01:03:25;;;;;;;13.02;7.40;;;0.40;99.90;;;;;;5074974;28;20017;-68
2022/04/04 01:05:50;;;;;;;12.80;7.78;;;0.40;99.90;;;;;;5056465;28;20108;-68
2022/04/04 01:08:16;;;;;;;12.70;8.05;;;0.40;99.90;;;;;;5074354;28;20504;-68
2022/04/04 01:10:43;;;;;;;15.68;8.65;;;0.30;99.90;;;;;;5074303;28;20477;-68
2022/04/04 01:13:11;;;;;;;13.32;8.10;;;0.30;99.90;;;;;;5074420;28;20074;-68
2022/04/04 01:15:37;;;;;;;11.10;7.03;;;0.30;99.90;;;;;;5074265;28;20048;-68
2022/04/04 01:18:04;;;;;;;12.57;7.28;;;0.30;99.90;;;;;;5074181;28;20024;-68
2022/04/04 01:20:30;;;;;;;13.48;7.90;;;0.30;99.90;;;;;;5074352;28;20433;-68
2022/04/04 01:22:56;;;;;;;12.77;8.00;;;0.30;99.90;;;;;;5056063;28;20020;-68
2022/04/04 01:25:25;;;;;;;15.50;8.38;;;0.20;99.90;;;;;;5074589;28;20487;-68
2022/04/04 01:27:50;;;;;;;13.00;7.47;;;0.20;99.90;;;;;;5056460;28;20025;-68
2022/04/04 01:30:16;;;;;;;12.40;7.82;;;0.20;99.90;;;;;;5073932;28;20021;-68
2022/04/04 01:32:43;;;;;;;12.82;7.75;;;0.20;99.90;;;;;;5073835;28;20168;-68
2022/04/04 01:35:10;;;;;;;11.65;7.45;;;0.20;99.90;;;;;;5074430;28;20181;-68
2022/04/04 01:37:36;;;;;;;13.43;7.65;;;0.20;99.90;;;;;;5073571;28;20477;-68
2022/04/04 01:40:04;;;;;;;14.85;8.50;;;0.20;99.90;;;;;;5073229;28;20469;-68
2022/04/04 01:42:31;;;;;;;14.15;8.40;;;0.20;99.90;;;;;;5073665;28;20048;-68
2022/04/04 01:44:57;;;;;;;11.80;7.93;;;0.20;99.90;;;;;;5074259;28;20495;-68
2022/04/04 01:47:23;;;;;;;13.15;8.15;;;0.10;99.90;;;;;;5073691;28;20025;-68
2022/04/04 01:49:48;;;;;;;13.75;8.18;;;0.20;99.90;;;;;;5073983;28;20396;-68
2022/04/04 01:52:14;;;;;;;13.40;8.40;;;0.20;99.90;;;;;;5073609;28;20107;-68
2022/04/04 01:54:40;;;;;;;12.45;7.55;;;0.10;99.90;;;;;;5073513;28;20040;-68
2022/04/04 01:57:06;;;;;;;17.38;8.50;;;0.20;99.90;;;;;;5073811;28;20028;-68
2022/04/04 01:59:32;;;;;;;12.10;7.75;;;0.20;99.90;;;;;;5073325;28;20035;-68
2022/04/04 02:01:58;;;;;;;12.13;7.78;;;0.20;99.90;;;;;;5073473;28;20033;-68
2022/04/04 02:04:23;;;;;;;12.88;7.82;;;0.20;99.90;;;;;;5055442;28;20481;-68
2022/04/04 02:06:49;;;;;;;12.38;7.43;;;0.20;99.90;;;;;;5073453;28;20055;-68
2022/04/04 02:09:15;;;;;;;14.07;8.20;;;0.30;99.90;;;;;;5073450;28;20103;-68
2022/04/04 02:11:42;;;;;;;14.07;8.85;;;0.30;99.90;;;;;;5073384;28;20086;-68
2022/04/04 02:14:08;;;;;;;13.25;8.23;;;0.20;99.90;;;;;;5073462;28;20020;-68
2022/04/04 02:16:34;;;;;;;14.63;8.88;;;0.20;99.90;;;;;;5073669;28;20029;-68
2022/04/04 02:18:59;;;;;;;12.88;8.60;;;0.10;99.90;;;;;;5073318;28;20032;-68
2022/04/04 02:21:26;;;;;;;13.90;8.38;;;0.00;99.90;;;;;;5055231;28;20033;-68
2022/04/04 02:23:52;;;;;;;13.57;8.68;;;-0.10;99.90;;;;;;5073161;28;20021;-68
2022/04/04 02:26:18;;;;;;;14.50;8.63;;;-0.10;99.90;;;;;;5073251;28;20020;-68
2022/04/04 02:28:44;;;;;;;13.13;8.27;;;-0.20;99.90;;;;;;5073225;28;20028;-68
2022/04/04 02:31:10;;;;;;;13.90;8.80;;;-0.20;99.90;;;;;;5073185;28;20032;-68
2022/04/04 02:33:35;;;;;;;15.07;9.32;;;-0.20;99.90;;;;;;5073412;28;20093;-68
2022/04/04 02:36:02;;;;;;;13.57;8.35;;;-0.20;99.90;;;;;;5073170;28;20035;-68
2022/04/04 02:38:28;;;;;;;14.95;9.10;;;-0.10;99.90;;;;;;5073450;28;20087;-68
2022/04/04 02:40:56;;;;;;;13.65;8.35;;;-0.10;99.90;;;;;;5073297;28;20036;-68
2022/04/04 02:43:22;;;;;;;12.90;8.50;;;-0.10;99.90;;;;;;5073216;28;20028;-68
2022/04/04 02:45:48;;;;;;;13.32;7.95;;;-0.10;99.90;;;;;;5073313;28;20017;-68
2022/04/04 02:48:15;;;;;;;14.10;8.35;;;0.00;99.90;;;;;;5073319;28;20484;-68
2022/04/04 02:50:41;;;;;;;13.50;8.45;;;0.00;99.90;;;;;;5075400;28;20070;-68
2022/04/04 02:53:07;;;;;;;16.23;9.27;;;0.00;99.90;;;;;;5076956;28;20381;-68
2022/04/04 02:58:17;;;;;;;14.77;9.30;;;0.00;99.90;;;;;;5076917;28;20078;-68
2022/04/04 03:00:43;;;;;;;15.65;9.18;;;0.00;99.90;;;;;;5076782;28;20028;-68
2022/04/04 03:03:09;;;;;;;16.10;9.23;;;0.00;99.90;;;;;;5076749;28;20468;-68
2022/04/04 03:05:36;;;;;;;17.13;9.48;;;0.00;99.90;;;;;;5076971;28;20021;-68
2022/04/04 03:08:02;;;;;;;13.68;8.77;;;0.00;99.90;;;;;;5058753;28;20497;-68
2022/04/04 03:10:28;;;;;;;15.27;9.55;;;0.00;99.90;;;;;;5076681;28;20060;-68
2022/04/04 03:12:54;;;;;;;15.45;9.68;;;0.00;99.90;;;;;;5076480;28;20081;-68
2022/04/04 03:15:22;;;;;;;16.10;9.10;;;0.00;99.90;;;;;;5076551;28;20028;-68
2022/04/04 03:17:51;;;;;;;15.32;9.32;;;-0.10;99.90;;;;;;5076524;28;20444;-68
2022/04/04 03:20:19;;;;;;;14.70;8.52;;;-0.10;99.90;;;;;;5076447;28;20102;-68
2022/04/04 03:22:47;;;;;;;16.00;10.27;;;-0.10;99.90;;;;;;5076261;28;20036;-68
2022/04/04 03:25:14;;;;;;;16.73;9.55;;;0.00;99.90;;;;;;5058377;28;20052;-68
2022/04/04 03:27:41;;;;;;;14.95;10.48;;;0.00;99.90;;;;;;5076578;28;20445;-68
2022/04/04 03:30:13;;;;;;;14.38;8.82;;;0.00;99.90;;;;;;5076244;28;20107;-68
2022/04/04 03:32:39;;;;;;;15.60;8.50;;;0.00;99.90;;;;;;5076467;28;20524;-68
2022/04/04 03:35:06;;;;;;;12.60;7.88;;;0.00;99.90;;;;;;5076755;28;20025;-68
2022/04/04 03:37:36;;;;;;;12.27;7.80;;;0.00;99.90;;;;;;5058211;28;20036;-68
2022/04/04 03:40:04;;;;;;;12.52;7.78;;;0.00;99.90;;;;;;5076431;28;20044;-67
2022/04/04 03:42:30;;;;;;;13.05;8.65;;;0.00;99.90;;;;;;5075919;28;20147;-68
2022/04/04 03:44:56;;;;;;;14.65;8.57;;;0.00;99.90;;;;;;5075954;28;20024;-67
2022/04/04 03:47:22;;;;;;;16.08;8.95;;;-0.10;99.90;;;;;;5076218;28;20065;-67
2022/04/04 03:49:48;;;;;;;14.70;8.23;;;-0.10;99.90;;;;;;5076171;28;20096;-67
2022/04/04 03:52:15;;;;;;;14.20;7.97;;;-0.20;99.90;;;;;;5076147;28;20021;-67
2022/04/04 03:54:41;;;;;;;13.00;8.60;;;-0.20;99.90;;;;;;5076024;28;20392;-67
2022/04/04 03:57:08;;;;;;;21.50;11.45;;;-0.30;99.90;;;;;;5075822;28;20114;-67
2022/04/04 03:59:33;;;;;;;31.10;13.73;;;-0.30;99.90;;;;;;5075795;28;20474;-67
2022/04/04 04:01:59;;;;;;;21.17;11.95;;;-0.30;99.90;;;;;;5074706;28;20024;-67
2022/04/04 04:04:25;;;;;;;22.52;11.45;;;-0.30;99.90;;;;;;5076142;28;20111;-67
2022/04/04 04:06:51;;;;;;;22.15;10.93;;;-0.30;99.90;;;;;;5075619;28;20070;-67
2022/04/04 04:09:18;;;;;;;17.45;10.00;;;-0.30;99.90;;;;;;5075768;28;20017;-67
2022/04/04 04:11:43;;;;;;;16.70;9.68;;;-0.30;99.90;;;;;;5075905;28;20121;-67
2022/04/04 04:14:09;;;;;;;15.52;8.82;;;-0.20;99.90;;;;;;5075645;28;20624;-67
2022/04/04 04:16:35;;;;;;;14.18;9.10;;;-0.20;99.90;;;;;;5075759;28;20381;-67
2022/04/04 04:19:01;;;;;;;16.63;9.85;;;-0.20;99.90;;;;;;5075683;28;20112;-67
2022/04/04 04:21:26;;;;;;;16.90;9.88;;;-0.20;99.90;;;;;;5075299;28;20055;-67
2022/04/04 04:23:52;;;;;;;17.88;9.95;;;-0.20;99.90;;;;;;5075201;28;20107;-67
2022/04/04 04:26:18;;;;;;;14.23;9.00;;;-0.20;99.90;;;;;;5075486;28;20429;-67
2022/04/04 04:28:46;;;;;;;13.85;9.18;;;-0.30;99.90;;;;;;5075115;28;20013;-67
2022/04/04 04:31:14;;;;;;;16.90;9.52;;;-0.30;99.90;;;;;;5075161;28;20036;-67
2022/04/04 04:33:40;;;;;;;17.23;10.32;;;-0.30;99.90;;;;;;5057112;28;20074;-67
2022/04/04 04:36:07;;;;;;;15.98;9.48;;;-0.40;99.90;;;;;;5075284;28;20024;-67
2022/04/04 04:38:32;;;;;;;16.27;9.52;;;-0.40;99.90;;;;;;5057083;28;20027;-67
2022/04/04 04:40:58;;;;;;;16.02;10.05;;;-0.40;99.90;;;;;;5074870;28;20111;-67
2022/04/04 04:43:24;;;;;;;15.63;9.40;;;-0.40;99.90;;;;;;5074834;28;20020;-67
2022/04/04 04:45:50;;;;;;;15.85;9.35;;;-0.50;99.90;;;;;;5074862;28;20031;-67
2022/04/04 04:48:15;;;;;;;17.88;10.00;;;-0.50;99.90;;;;;;5075410;28;20100;-67
2022/04/04 04:50:41;;;;;;;16.58;10.07;;;-0.50;99.90;;;;;;5074766;28;20078;-67
2022/04/04 04:53:07;;;;;;;17.58;9.70;;;-0.50;99.90;;;;;;5074758;28;20048;-67
2022/04/04 04:55:33;;;;;;;16.98;10.52;;;-0.50;99.90;;;;;;5074650;28;20465;-67
2022/04/04 04:57:59;;;;;;;17.70;10.32;;;-0.50;99.90;;;;;;5074617;28;20067;-67
2022/04/04 05:00:27;;;;;;;20.58;11.43;;;-0.50;99.90;;;;;;5074440;28;20056;-67
2022/04/04 05:05:38;;;;;;;26.63;13.25;;;-0.40;99.90;;;;;;5075102;28;20078;-67
2022/04/04 05:08:04;;;;;;;19.52;11.88;;;-0.40;99.90;;;;;;5056460;28;20027;-67
2022/04/04 05:10:30;;;;;;;18.75;10.88;;;-0.40;99.90;;;;;;5074967;28;20055;-67
2022/04/04 05:12:56;;;;;;;20.25;10.63;;;-0.40;99.90;;;;;;5074164;28;20048;-68
2022/04/04 05:15:23;;;;;;;16.98;9.90;;;-0.40;99.90;;;;;;5056349;28;20487;-67
2022/04/04 05:17:49;;;;;;;18.55;10.85;;;-0.40;99.90;;;;;;5074250;28;20070;-67
2022/04/04 05:20:15;;;;;;;20.90;11.95;;;-0.30;99.90;;;;;;5074164;28;20392;-67
2022/04/04 05:22:41;;;;;;;19.63;12.30;;;-0.30;99.90;;;;;;5074030;28;20032;-68
2022/04/04 05:25:07;;;;;;;21.48;12.10;;;-0.30;99.90;;;;;;5074358;28;20020;-67
2022/04/04 05:27:33;;;;;;;21.02;12.50;;;-0.20;99.90;;;;;;5074598;28;20048;-67
2022/04/04 05:29:58;;;;;;;22.52;12.68;;;-0.20;99.90;;;;;;5074297;28;20080;-67
2022/04/04 05:32:24;;;;;;;27.40;14.45;;;-0.20;99.90;;;;;;5074287;28;20032;-67
2022/04/04 05:34:50;;;;;;;27.67;14.93;;;-0.20;99.90;;;;;;5073839;28;20033;-67
2022/04/04 05:37:16;;;;;;;26.98;15.63;;;-0.20;99.90;;;;;;5073895;28;20020;-67
2022/04/04 05:39:41;;;;;;;29.25;16.45;;;-0.30;99.90;;;;;;5074680;28;20059;-69
2022/04/04 05:42:07;;;;;;;26.23;15.43;;;-0.30;99.90;;;;;;5056653;28;20032;-69
2022/04/04 05:44:33;;;;;;;28.08;15.75;;;-0.30;99.90;;;;;;5073631;28;20020;-70
2022/04/04 05:46:59;;;;;;;24.65;12.70;;;-0.20;99.90;;;;;;5073595;28;20017;-70
2022/04/04 05:49:25;;;;;;;22.73;13.07;;;-0.20;99.90;;;;;;5073879;28;20468;-69
2022/04/04 05:51:51;;;;;;;28.73;15.75;;;-0.20;99.90;;;;;;5055570;28;20131;-69
2022/04/04 05:54:17;;;;;;;23.13;12.75;;;-0.20;99.90;;;;;;5073719;28;20429;-70
2022/04/04 05:56:46;;;;;;;17.95;10.82;;;-0.20;99.90;;;;;;5073565;28;20020;-70
2022/04/04 05:59:13;;;;;;;17.23;9.60;;;-0.20;99.90;;;;;;5055412;28;20033;-70
2022/04/04 06:01:39;;;;;;;17.67;9.73;;;-0.20;99.90;;;;;;5073346;28;20078;-70
2022/04/04 06:04:05;;;;;;;17.65;9.70;;;-0.10;99.90;;;;;;5073859;28;20059;-70
2022/04/04 06:06:31;;;;;;;16.15;10.15;;;-0.10;99.90;;;;;;5073777;28;20021;-70
2022/04/04 06:08:57;;;;;;;16.60;10.20;;;0.00;99.90;;;;;;5073689;28;20104;-69
2022/04/04 06:11:23;;;;;;;18.13;10.48;;;0.00;99.90;;;;;;5073698;28;20540;-70
2022/04/04 06:13:48;;;;;;;14.77;9.15;;;0.00;99.90;;;;;;5055340;28;20507;-69
2022/04/04 06:16:14;;;;;;;13.95;9.23;;;0.10;99.90;;;;;;5073922;28;20032;-70
2022/04/04 06:18:40;;;;;;;15.70;9.50;;;0.10;99.90;;;;;;5055412;28;20028;-70
2022/04/04 06:21:06;;;;;;;14.52;8.63;;;0.20;99.90;;;;;;5055434;28;20050;-70
2022/04/04 06:23:33;;;;;;;14.25;8.73;;;0.20;99.90;;;;;;5055536;28;20025;-70
2022/04/04 06:26:00;;;;;;;15.10;9.65;;;0.20;99.90;;;;;;5054841;28;20025;-70
2022/04/04 06:28:27;;;;;;;17.35;9.52;;;0.30;99.90;;;;;;5073540;28;20048;-70
2022/04/04 06:30:54;;;;;;;15.98;9.68;;;0.30;99.90;;;;;;5073218;28;20017;-70
2022/04/04 06:33:20;;;;;;;17.08;9.77;;;0.30;99.90;;;;;;5073394;28;20016;-70
2022/04/04 06:35:47;;;;;;;18.80;10.02;;;0.30;99.90;;;;;;5073286;28;20381;-70
2022/04/04 06:38:14;;;;;;;17.63;10.88;;;0.30;99.90;;;;;;5073474;28;20027;-70
2022/04/04 06:40:40;;;;;;;18.00;10.43;;;0.40;99.90;;;;;;5073523;28;20021;-70
2022/04/04 06:43:06;;;;;;;21.65;11.52;;;0.40;99.90;;;;;;5073186;28;20036;-70
2022/04/04 06:45:32;;;;;;;22.08;12.00;;;0.40;99.90;;;;;;5073404;28;20021;-70
2022/04/04 06:47:57;;;;;;;18.25;11.73;;;0.40;99.90;;;;;;5073039;28;20101;-71
2022/04/04 06:50:23;;;;;;;22.85;12.75;;;0.40;99.90;;;;;;5073375;28;20028;-72
2022/04/04 06:52:52;;;;;;;20.50;12.23;;;0.50;99.90;;;;;;5072920;28;20021;-72
2022/04/04 06:55:18;;;;;;;25.30;13.60;;;0.50;99.90;;;;;;5055012;28;20485;-72
2022/04/04 06:57:44;;;;;;;21.55;13.63;;;0.60;99.90;;;;;;5073226;28;20021;-72
2022/04/04 07:00:11;;;;;;;24.85;14.00;;;0.50;99.90;;;;;;5054914;28;20497;-72
2022/04/04 07:02:38;;;;;;;24.02;13.65;;;0.50;99.90;;;;;;5072731;28;20027;-72
2022/04/04 07:05:05;;;;;;;22.95;13.55;;;0.50;99.90;;;;;;5072899;28;20016;-72
2022/04/04 07:07:32;;;;;;;21.15;12.95;;;0.50;99.90;;;;;;5073122;28;20031;-71
2022/04/04 07:09:57;;;;;;;20.88;12.27;;;0.60;99.90;;;;;;5072836;28;20023;-72
2022/04/04 07:12:23;;;;;;;21.00;13.23;;;0.60;99.90;;;;;;5055188;28;20029;-72
2022/04/04 07:14:49;;;;;;;19.65;11.63;;;0.70;99.90;;;;;;5072746;28;20032;-71
2022/04/04 07:17:15;;;;;;;23.98;12.50;;;0.70;99.90;;;;;;5073021;28;20028;-72
2022/04/04 07:19:41;;;;;;;21.77;12.77;;;0.80;99.90;;;;;;5073118;28;20047;-72
2022/04/04 07:22:06;;;;;;;22.23;12.38;;;0.90;99.90;;;;;;5072713;28;20058;-71
2022/04/04 07:24:32;;;;;;;21.33;12.23;;;0.90;99.90;;;;;;5072682;28;20469;-71
2022/04/04 07:26:58;;;;;;;21.73;12.98;;;1.00;99.90;;;;;;5072819;28;20100;-71
2022/04/04 07:29:25;;;;;;;23.25;12.55;;;1.10;99.90;;;;;;5072636;28;20017;-71
2022/04/04 07:31:51;;;;;;;24.00;13.05;;;1.20;99.90;;;;;;5072590;28;20495;-71
2022/04/04 07:34:17;;;;;;;22.13;12.20;;;1.30;99.90;;;;;;5054542;28;20033;-71
2022/04/04 07:36:42;;;;;;;19.23;10.77;;;1.30;99.90;;;;;;5073587;28;20380;-71
2022/04/04 07:39:08;;;;;;;17.83;10.32;;;1.40;99.90;;;;;;5076401;28;20358;-70
2022/04/04 07:41:34;;;;;;;18.58;10.80;;;1.50;99.90;;;;;;5076152;28;20035;-70
2022/04/04 07:44:00;;;;;;;17.80;10.18;;;1.60;99.90;;;;;;5076231;28;20029;-70
2022/04/04 07:46:26;;;;;;;20.88;10.57;;;1.70;99.90;;;;;;5076303;28;20023;-70
2022/04/04 07:48:55;;;;;;;21.85;11.02;;;1.70;99.90;;;;;;5058313;28;20027;-70
2022/04/04 07:51:24;;;;;;;17.15;10.05;;;1.80;99.90;;;;;;5076238;28;20035;-70
2022/04/04 07:53:50;;;;;;;18.60;10.13;;;1.90;99.90;;;;;;5075811;28;20079;-70
2022/04/04 07:56:16;;;;;;;16.55;9.85;;;2.00;99.90;;;;;;5076114;28;20016;-69
2022/04/04 07:58:42;;;;;;;16.63;9.32;;;2.00;99.90;;;;;;5075581;28;20035;-69
2022/04/04 08:01:07;;;;;;;15.07;9.73;;;2.10;99.90;;;;;;5076278;28;20039;-69
2022/04/04 08:03:34;;;;;;;19.77;10.05;;;2.20;99.90;;;;;;5075680;28;20032;-69
2022/04/04 08:05:59;;;;;;;14.98;9.32;;;2.30;99.90;;;;;;5075719;28;20013;-69
2022/04/04 08:08:25;;;;;;;21.30;10.05;;;2.40;99.90;;;;;;5075734;28;20384;-69
2022/04/04 08:10:51;;;;;;;23.70;9.75;;;2.40;99.90;;;;;;5075847;28;20021;-69
2022/04/04 08:13:17;;;;;;;17.98;9.93;;;2.50;99.90;;;;;;5075514;28;20031;-69
2022/04/04 08:15:42;;;;;;;17.70;9.02;;;2.50;99.90;;;;;;5075495;28;20054;-69
2022/04/04 08:18:08;;;;;;;15.77;8.85;;;2.60;99.90;;;;;;5075458;28;20107;-69
2022/04/04 08:20:34;;;;;;;15.27;9.38;;;2.70;99.90;;;;;;5057431;28;20028;-69
2022/04/04 08:23:00;;;;;;;17.38;10.02;;;2.80;99.90;;;;;;5057231;28;20035;-69
2022/04/04 08:25:25;;;;;;;15.82;8.68;;;2.90;99.90;;;;;;5075312;28;20021;-69
2022/04/04 08:27:51;;;;;;;18.48;9.30;;;3.00;99.90;;;;;;5075279;28;20090;-69
2022/04/04 08:30:18;;;;;;;15.10;8.00;;;3.10;99.40;;;;;;5075765;28;20461;-69
2022/04/04 08:32:44;;;;;;;13.55;7.88;;;3.10;98.50;;;;;;5075378;28;20078;-69
2022/04/04 08:35:12;;;;;;;17.40;8.80;;;3.30;98.80;;;;;;5075113;28;20031;-69
2022/04/04 08:37:41;;;;;;;15.18;9.23;;;3.30;98.40;;;;;;5075053;28;20499;-69
2022/04/04 08:40:09;;;;;;;16.13;9.25;;;3.50;99.60;;;;;;5075116;28;20452;-69
2022/04/04 08:42:36;;;;;;;14.98;8.45;;;3.70;99.90;;;;;;5056868;28;20032;-69
2022/04/04 08:45:03;;;;;;;13.57;8.20;;;3.80;97.80;;;;;;5074931;28;20032;-69
2022/04/04 08:47:31;;;;;;;13.27;7.75;;;4.00;99.70;;;;;;5074600;28;20099;-69
2022/04/04 08:49:57;;;;;;;13.35;8.50;;;4.10;95.60;;;;;;5075069;28;20048;-69
2022/04/04 08:52:24;;;;;;;13.80;8.50;;;4.30;97.10;;;;;;5074709;28;20033;-69
2022/04/04 08:54:50;;;;;;;12.07;7.68;;;4.50;96.20;;;;;;5074866;28;20039;-69
2022/04/04 08:57:17;;;;;;;11.75;7.00;;;4.60;94.30;;;;;;5074845;28;20099;-69
2022/04/04 08:59:44;;;;;;;13.48;5.57;;;4.70;94.20;;;;;;5074528;28;20032;-69
2022/04/04 09:02:13;;;;;;;10.63;6.65;;;4.80;90.40;;;;;;5074488;28;20020;-69
2022/04/04 09:04:40;;;;;;;9.50;5.93;;;4.80;90.80;;;;;;5074483;28;20020;-69
2022/04/04 09:07:10;;;;;;;7.97;5.25;;;4.90;87.00;;;;;;5074725;28;20027;-69
2022/04/04 09:09:48;;;;;;;8.30;5.97;;;4.80;84.50;;;;;;5074755;28;20035;-69
2022/04/04 09:12:23;;;;;;;11.90;5.75;;;4.70;85.80;;;;;;5074634;28;20056;-69
2022/04/04 09:14:54;;;;;;;11.05;6.28;;;4.70;87.80;;;;;;5074294;28;20123;-69
2022/04/04 09:17:24;;;;;;;;;;;4.80;83.10;;;;;;5074648;28;20028;-69
2022/04/04 09:19:51;;;;;;;11.40;6.40;;;4.80;84.90;;;;;;5074471;28;19908;-70
2022/04/04 09:22:18;;;;;;;9.55;6.07;;;5.00;87.90;;;;;;5074049;28;20078;-69
2022/04/04 09:24:46;;;;;;;12.23;6.93;;;5.10;88.80;;;;;;5074081;28;20020;-69
2022/04/04 09:27:16;;;;;;;11.45;6.82;;;5.20;87.20;;;;;;5074316;28;20017;-70
2022/04/04 09:29:43;;;;;;;10.27;6.50;;;5.30;83.50;;;;;;5056163;28;20021;-70
2022/04/04 09:32:12;;;;;;;13.60;7.30;;;5.40;87.00;;;;;;5074598;28;20025;-70
2022/04/04 09:34:52;;;;;;;9.70;6.40;;;5.50;89.40;;;;;;5073818;28;20138;-69
2022/04/04 09:37:19;;;;;;;9.85;6.13;;;5.60;85.40;;;;;;5055999;28;20081;-70
2022/04/04 09:39:45;;;;;;;10.90;7.00;;;5.60;84.20;;;;;;5073833;28;20127;-70
2022/04/04 09:42:20;;;;;;;11.45;7.47;;;5.70;85.90;;;;;;5073664;28;20380;-69
2022/04/04 09:45:14;;;;;;;13.23;7.85;;;5.90;85.80;;;;;;5073738;28;20021;-69
2022/04/04 09:47:58;;;;;;;25.33;14.35;;;6.10;86.80;;;;;;5071781;28;20055;-70
2022/04/04 09:50:38;;;;;;;13.00;7.85;;;6.20;85.20;;;;;;5074249;28;20133;-70
2022/04/04 09:53:06;;;;;;;18.52;11.13;;;6.30;85.40;;;;;;5073657;28;20020;-68
2022/04/04 09:55:34;;;;;;;11.43;7.00;;;6.40;87.50;;;;;;5055913;28;20031;-69
2022/04/04 09:58:02;;;;;;;11.05;6.80;;;6.40;84.70;;;;;;5074353;28;20028;-69
2022/04/04 10:00:28;;;;;;;15.00;8.75;;;6.50;85.70;;;;;;5055813;28;20035;-70
2022/04/04 10:02:56;;;;;;;8.75;6.63;;;6.70;84.10;;;;;;5056489;28;20028;-70
2022/04/04 10:05:27;;;;;;;9.85;6.38;;;6.70;82.20;;;;;;5073552;28;20029;-70
2022/04/04 10:07:55;;;;;;;15.68;11.55;;;6.50;76.70;;;;;;5073810;28;20103;-70
2022/04/04 10:10:26;;;;;;;9.00;6.63;;;6.30;82.40;;;;;;5073470;28;20099;-70
2022/04/04 10:12:53;;;;;;;11.90;6.50;;;6.20;81.90;;;;;;5073500;28;20024;-70
2022/04/04 10:15:23;;;;;;;10.88;6.28;;;6.20;79.90;;;;;;5055577;28;20024;-70
2022/04/04 10:17:50;;;;;;;52.47;25.63;;;6.10;79.70;;;;;;5055388;28;20024;-70
2022/04/04 10:20:16;;;;;;;11.80;6.82;;;6.00;80.70;;;;;;5055505;28;20052;-70
2022/04/04 10:22:44;;;;;;;10.43;6.38;;;6.10;80.90;;;;;;5073486;28;20103;-70
2022/04/04 10:25:16;;;;;;;12.05;6.82;;;6.10;79.90;;;;;;5073265;28;20034;-70
2022/04/04 10:27:47;;;;;;;10.60;6.50;;;6.00;79.20;;;;;;5073920;28;20016;-70
2022/04/04 10:30:15;;;;;;;12.88;7.80;;;5.90;80.70;;;;;;5055592;28;20028;-70
2022/04/04 10:32:54;;;;;;;9.57;6.50;;;5.90;81.40;;;;;;5056249;28;20028;-70
2022/04/04 10:35:23;;;;;;;11.25;6.88;;;5.90;84.70;;;;;;5073147;28;20052;-70
2022/04/04 10:37:49;;;;;;;10.77;6.53;;;6.10;80.70;;;;;;5073276;28;20104;-70
2022/04/04 10:40:23;;;;;;;14.63;6.38;;;6.20;82.10;;;;;;5073415;28;20074;-70
2022/04/04 10:43:14;;;;;;;9.55;6.35;;;6.40;82.80;;;;;;5073246;28;20028;-70
2022/04/04 10:45:59;;;;;;;9.95;6.97;;;6.60;81.20;;;;;;5055767;28;20027;-70
2022/04/04 10:48:33;;;;;;;10.35;6.57;;;6.80;78.20;;;;;;5073342;28;20484;-70
2022/04/04 10:51:18;;;;;;;15.50;6.63;;;6.70;77.40;;;;;;5073627;28;20023;-70
2022/04/04 10:53:51;;;;;;;10.27;6.30;;;6.80;80.60;;;;;;5073014;28;20532;-70
2022/04/04 10:56:33;;;;;;;10.25;6.50;;;6.90;79.60;;;;;;5054960;28;20115;-70
2022/04/04 10:59:18;;;;;;;10.43;6.90;;;7.00;78.10;;;;;;5054919;28;20461;-70
2022/04/04 11:01:49;;;;;;;10.90;6.75;;;7.20;80.50;;;;;;5054982;28;20546;-70
2022/04/04 11:04:25;;;;;;;;;;;7.30;80.10;;;;;;5073660;28;20063;-71
2022/04/04 11:09:55;;;;;;;19.65;8.68;;;7.50;78.10;;;;;;5073459;28;20031;-71
2022/04/04 11:12:23;;;;;;;10.77;6.55;;;7.50;78.50;;;;;;5076411;28;20110;-71
2022/04/04 11:15:02;;;;;;;11.68;6.78;;;7.60;76.50;;;;;;5076578;28;20021;-71
2022/04/04 11:17:33;;;;;;;16.25;10.68;;;7.60;77.50;;;;;;5077173;28;20020;-71
2022/04/04 11:20:14;;;;;;;8.07;6.22;;;7.70;75.30;;;;;;5077217;28;20024;-71
2022/04/04 11:22:46;;;;;;;33.90;7.63;;;7.70;74.80;;;;;;5076650;28;20070;-71
2022/04/04 11:25:22;;;;;;;10.70;7.20;;;7.60;74.00;;;;;;5076675;28;20012;-71
2022/04/04 11:27:48;;;;;;;10.82;6.10;;;7.50;74.30;;;;;;5077012;28;20040;-71
2022/04/04 11:30:20;;;;;;;10.77;6.43;;;7.40;76.40;;;;;;5076611;28;20480;-71
2022/04/04 11:32:49;;;;;;;9.07;6.00;;;7.50;73.70;;;;;;5077528;28;20028;-71
2022/04/04 11:35:25;;;;;;;9.57;5.88;;;7.60;77.30;;;;;;5068124;28;20024;-71
2022/04/04 11:37:53;;;;;;;11.52;6.60;;;7.70;74.50;;;;;;5093147;28;20069;-71
2022/04/04 11:40:23;;;;;;;11.30;6.85;;;7.80;76.00;;;;;;5096824;28;20099;-71
2022/04/04 11:42:51;;;;;;;9.82;6.53;;;7.90;76.90;;;;;;5094943;28;20108;-71
2022/04/04 11:45:35;;;;;;;8.70;5.60;;;8.10;74.50;;;;;;5078089;28;20051;-72
2022/04/04 11:48:06;;;;;;;8.10;5.80;;;8.10;72.20;;;;;;5096690;28;20472;-72
2022/04/04 11:50:34;;;;;;;7.30;5.50;;;8.10;68.70;;;;;;5096535;28;20464;-72
2022/04/04 11:53:02;;;;;;;8.82;6.28;;;8.10;72.30;;;;;;5078734;28;20505;-72
2022/04/04 11:55:32;;;;;;;8.60;5.78;;;8.10;73.00;;;;;;5096121;28;20110;-72
2022/04/04 11:58:01;;;;;;;10.15;5.95;;;8.10;72.00;;;;;;5096062;28;20028;-72
2022/04/04 12:00:31;;;;;;;8.82;5.53;;;8.10;72.20;;;;;;5077865;28;20119;-72
2022/04/04 12:03:01;;;;;;;9.63;6.15;;;8.20;72.50;;;;;;5095890;28;20528;-72
2022/04/04 12:05:28;;;;;;;10.48;6.38;;;8.30;73.60;;;;;;5077860;28;20077;-72
2022/04/04 12:07:54;;;;;;;8.60;5.85;;;8.40;78.20;;;;;;5095988;28;20024;-72
2022/04/04 12:10:29;;;;;;;9.45;5.93;;;8.70;78.30;;;;;;5095902;28;20024;-72
2022/04/04 12:13:00;;;;;;;8.95;6.20;;;8.80;70.30;;;;;;5096053;28;20020;-72
2022/04/04 12:15:31;;;;;;;10.63;6.75;;;8.70;76.40;;;;;;5095812;28;20020;-72
2022/04/04 12:17:58;;;;;;;9.63;6.38;;;8.60;68.50;;;;;;5096074;28;20024;-72
2022/04/04 12:20:24;;;;;;;9.40;6.43;;;8.40;74.10;;;;;;5095879;28;20052;-72
2022/04/04 12:25:35;;;;;;;8.00;5.30;;;8.30;71.40;;;;;;5096068;28;20047;-72
2022/04/04 12:28:02;;;;;;;9.50;6.00;;;8.40;71.30;;;;;;5095798;28;20460;-72
2022/04/04 12:30:34;;;;;;;9.50;6.43;;;8.50;72.00;;;;;;5077253;28;20373;-72
2022/04/04 12:33:12;;;;;;;8.02;6.13;;;8.60;73.60;;;;;;5078097;28;20433;-72
2022/04/04 12:35:48;;;;;;;8.48;5.82;;;8.60;70.10;;;;;;5095427;28;20027;-72
2022/04/04 12:38:31;;;;;;;10.15;6.80;;;8.70;69.30;;;;;;5095273;28;20030;-72
2022/04/04 12:41:15;;;;;;;10.23;6.95;;;8.80;72.70;;;;;;5077206;28;20024;-72
2022/04/04 12:43:47;;;;;;;9.25;6.72;;;9.00;70.50;;;;;;5095159;28;20043;-72
2022/04/04 12:46:41;;;;;;;10.50;7.07;;;9.10;71.10;;;;;;5077242;28;20023;-72
2022/04/04 12:49:12;;;;;;;9.70;6.63;;;9.30;75.40;;;;;;5077537;28;20032;-71
2022/04/04 12:51:40;;;;;;;9.95;7.05;;;9.30;65.70;;;;;;5095361;28;20066;-72
2022/04/04 12:54:06;;;;;;;11.00;6.55;;;9.30;66.90;;;;;;5094943;28;20035;-72
2022/04/04 12:56:48;;;;;;;10.82;6.65;;;9.20;69.00;;;;;;5077932;28;20107;-72